sensor_id;sensor_type;location;lat;lon;timestamp;P1;durP1;ratioP1;P2;durP2;ratioP2
10277;SDS011;5184;51.376;7.148;2023-03-26T00:01:21;12.70;;;3.73;;
10277;SDS011;5184;51.376;7.148;2023-03-26T00:03:48;14.67;;;3.63;;
10277;SDS011;5184;51.376;7.148;2023-03-26T00:06:15;14.10;;;3.67;;
10277;SDS011;5184;51.376;7.148;2023-03-26T00:08:43;17.43;;;3.60;;
10277;SDS011;5184;51.376;7.148;2023-03-26T00:11:10;12.57;;;3.87;;
10277;SDS011;5184;51.376;7.148;2023-03-26T00:13:36;12.90;;;3.40;;
10277;SDS011;5184;51.376;7.148;2023-03-26T00:16:03;13.00;;;4.27;;
10277;SDS011;5184;51.376;7.148;2023-03-26T00:18:29;16.57;;;3.80;;
10277;SDS011;5184;51.376;7.148;2023-03-26T00:20:57;13.73;;;4.30;;
10277;SDS011;5184;51.376;7.148;2023-03-26T00:23:24;14.90;;;4.20;;
10277;SDS011;5184;51.376;7.148;2023-03-26T00:25:50;16.60;;;3.97;;
10277;SDS011;5184;51.376;7.148;2023-03-26T00:28:17;16.07;;;4.00;;
10277;SDS011;5184;51.376;7.148;2023-03-26T00:30:43;16.00;;;3.93;;
10277;SDS011;5184;51.376;7.148;2023-03-26T00:33:10;19.40;;;4.20;;
10277;SDS011;5184;51.376;7.148;2023-03-26T00:35:37;16.57;;;4.33;;
10277;SDS011;5184;51.376;7.148;2023-03-26T00:38:05;20.20;;;4.23;;
10277;SDS011;5184;51.376;7.148;2023-03-26T00:40:32;17.43;;;4.13;;
10277;SDS011;5184;51.376;7.148;2023-03-26T00:42:59;18.10;;;4.07;;
10277;SDS011;5184;51.376;7.148;2023-03-26T00:45:25;19.87;;;4.77;;
10277;SDS011;5184;51.376;7.148;2023-03-26T00:47:53;24.50;;;5.13;;
10277;SDS011;5184;51.376;7.148;2023-03-26T00:50:19;17.47;;;4.70;;
10277;SDS011;5184;51.376;7.148;2023-03-26T00:52:46;22.47;;;4.67;;
10277;SDS011;5184;51.376;7.148;2023-03-26T00:55:12;21.63;;;4.73;;
10277;SDS011;5184;51.376;7.148;2023-03-26T00:57:39;14.50;;;4.40;;
10277;SDS011;5184;51.376;7.148;2023-03-26T01:00:07;21.30;;;4.50;;
10277;SDS011;5184;51.376;7.148;2023-03-26T01:02:34;17.53;;;4.33;;
10277;SDS011;5184;51.376;7.148;2023-03-26T01:05:29;21.47;;;4.57;;
10277;SDS011;5184;51.376;7.148;2023-03-26T01:07:28;18.57;;;4.30;;
10277;SDS011;5184;51.376;7.148;2023-03-26T01:09:57;16.17;;;4.43;;
10277;SDS011;5184;51.376;7.148;2023-03-26T01:12:24;16.53;;;4.90;;
10277;SDS011;5184;51.376;7.148;2023-03-26T01:14:50;16.33;;;4.20;;
10277;SDS011;5184;51.376;7.148;2023-03-26T01:17:17;21.47;;;5.00;;
10277;SDS011;5184;51.376;7.148;2023-03-26T01:19:49;19.07;;;3.87;;
10277;SDS011;5184;51.376;7.148;2023-03-26T01:22:15;15.47;;;4.60;;
10277;SDS011;5184;51.376;7.148;2023-03-26T01:24:41;23.83;;;4.67;;
10277;SDS011;5184;51.376;7.148;2023-03-26T01:27:13;19.33;;;4.10;;
10277;SDS011;5184;51.376;7.148;2023-03-26T01:29:42;18.67;;;4.67;;
10277;SDS011;5184;51.376;7.148;2023-03-26T01:32:12;24.83;;;5.23;;
10277;SDS011;5184;51.376;7.148;2023-03-26T01:34:49;25.70;;;4.63;;
10277;SDS011;5184;51.376;7.148;2023-03-26T01:37:20;16.00;;;4.77;;
10277;SDS011;5184;51.376;7.148;2023-03-26T01:40:08;17.57;;;5.17;;
10277;SDS011;5184;51.376;7.148;2023-03-26T01:42:40;20.83;;;4.60;;
10277;SDS011;5184;51.376;7.148;2023-03-26T01:45:08;23.10;;;4.83;;
10277;SDS011;5184;51.376;7.148;2023-03-26T01:47:35;20.47;;;4.60;;
10277;SDS011;5184;51.376;7.148;2023-03-26T01:50:01;23.40;;;5.47;;
10277;SDS011;5184;51.376;7.148;2023-03-26T01:52:29;22.13;;;4.67;;
10277;SDS011;5184;51.376;7.148;2023-03-26T01:54:55;20.80;;;5.03;;
10277;SDS011;5184;51.376;7.148;2023-03-26T01:57:28;23.67;;;4.90;;
10277;SDS011;5184;51.376;7.148;2023-03-26T01:59:58;17.07;;;4.13;;
10277;SDS011;5184;51.376;7.148;2023-03-26T02:02:28;22.60;;;5.00;;
10277;SDS011;5184;51.376;7.148;2023-03-26T02:07:47;22.83;;;4.60;;
10277;SDS011;5184;51.376;7.148;2023-03-26T02:10:15;22.23;;;4.43;;
10277;SDS011;5184;51.376;7.148;2023-03-26T02:12:41;22.03;;;4.90;;
10277;SDS011;5184;51.376;7.148;2023-03-26T02:15:08;18.37;;;5.00;;
10277;SDS011;5184;51.376;7.148;2023-03-26T02:17:36;20.90;;;5.30;;
10277;SDS011;5184;51.376;7.148;2023-03-26T02:20:03;18.63;;;5.17;;
10277;SDS011;5184;51.376;7.148;2023-03-26T02:22:30;21.00;;;4.90;;
10277;SDS011;5184;51.376;7.148;2023-03-26T02:24:57;23.53;;;4.13;;
10277;SDS011;5184;51.376;7.148;2023-03-26T02:27:23;23.50;;;4.63;;
10277;SDS011;5184;51.376;7.148;2023-03-26T02:29:50;22.57;;;5.10;;
10277;SDS011;5184;51.376;7.148;2023-03-26T02:32:17;25.87;;;5.60;;
10277;SDS011;5184;51.376;7.148;2023-03-26T02:34:44;17.60;;;4.17;;
10277;SDS011;5184;51.376;7.148;2023-03-26T02:37:12;26.77;;;4.87;;
10277;SDS011;5184;51.376;7.148;2023-03-26T02:39:39;19.90;;;4.70;;
10277;SDS011;5184;51.376;7.148;2023-03-26T02:42:06;19.23;;;4.30;;
10277;SDS011;5184;51.376;7.148;2023-03-26T02:44:32;24.17;;;4.70;;
10277;SDS011;5184;51.376;7.148;2023-03-26T02:46:59;23.53;;;4.30;;
10277;SDS011;5184;51.376;7.148;2023-03-26T02:49:26;23.70;;;4.70;;
10277;SDS011;5184;51.376;7.148;2023-03-26T02:51:54;22.13;;;5.10;;
10277;SDS011;5184;51.376;7.148;2023-03-26T02:54:21;26.47;;;5.33;;
10277;SDS011;5184;51.376;7.148;2023-03-26T02:56:48;22.13;;;4.80;;
10277;SDS011;5184;51.376;7.148;2023-03-26T02:59:15;23.47;;;5.80;;
10277;SDS011;5184;51.376;7.148;2023-03-26T03:01:42;24.87;;;5.07;;
10277;SDS011;5184;51.376;7.148;2023-03-26T03:04:09;13.40;;;4.50;;
10277;SDS011;5184;51.376;7.148;2023-03-26T03:06:36;16.87;;;4.53;;
10277;SDS011;5184;51.376;7.148;2023-03-26T03:09:04;19.60;;;4.57;;
10277;SDS011;5184;51.376;7.148;2023-03-26T03:11:31;19.50;;;4.77;;
10277;SDS011;5184;51.376;7.148;2023-03-26T03:13:57;20.30;;;5.23;;
10277;SDS011;5184;51.376;7.148;2023-03-26T03:16:24;21.80;;;4.37;;
10277;SDS011;5184;51.376;7.148;2023-03-26T03:18:51;14.87;;;4.53;;
10277;SDS011;5184;51.376;7.148;2023-03-26T03:21:19;19.37;;;5.13;;
10277;SDS011;5184;51.376;7.148;2023-03-26T03:23:46;23.40;;;4.80;;
10277;SDS011;5184;51.376;7.148;2023-03-26T03:26:15;18.40;;;4.47;;
10277;SDS011;5184;51.376;7.148;2023-03-26T03:28:41;24.10;;;4.57;;
10277;SDS011;5184;51.376;7.148;2023-03-26T03:31:08;24.10;;;5.50;;
10277;SDS011;5184;51.376;7.148;2023-03-26T03:33:36;21.07;;;4.60;;
10277;SDS011;5184;51.376;7.148;2023-03-26T03:36:02;22.03;;;5.27;;
10277;SDS011;5184;51.376;7.148;2023-03-26T03:38:29;18.93;;;4.27;;
10277;SDS011;5184;51.376;7.148;2023-03-26T03:40:56;15.30;;;4.37;;
10277;SDS011;5184;51.376;7.148;2023-03-26T03:43:22;20.73;;;4.60;;
10277;SDS011;5184;51.376;7.148;2023-03-26T03:45:49;19.33;;;4.77;;
10277;SDS011;5184;51.376;7.148;2023-03-26T03:48:16;18.97;;;4.20;;
10277;SDS011;5184;51.376;7.148;2023-03-26T03:50:44;18.67;;;4.03;;
10277;SDS011;5184;51.376;7.148;2023-03-26T03:53:11;23.37;;;4.50;;
10277;SDS011;5184;51.376;7.148;2023-03-26T03:55:38;16.80;;;4.17;;
10277;SDS011;5184;51.376;7.148;2023-03-26T03:58:05;15.80;;;4.00;;
10277;SDS011;5184;51.376;7.148;2023-03-26T04:00:32;20.50;;;3.93;;
10277;SDS011;5184;51.376;7.148;2023-03-26T04:03:00;18.10;;;4.07;;
10277;SDS011;5184;51.376;7.148;2023-03-26T04:05:27;17.80;;;4.00;;
10277;SDS011;5184;51.376;7.148;2023-03-26T04:07:54;15.20;;;4.50;;
10277;SDS011;5184;51.376;7.148;2023-03-26T04:10:22;16.17;;;3.83;;
10277;SDS011;5184;51.376;7.148;2023-03-26T04:12:49;18.80;;;4.40;;
10277;SDS011;5184;51.376;7.148;2023-03-26T04:15:16;18.43;;;4.30;;
10277;SDS011;5184;51.376;7.148;2023-03-26T04:17:42;15.60;;;4.60;;
10277;SDS011;5184;51.376;7.148;2023-03-26T04:20:09;17.37;;;4.67;;
10277;SDS011;5184;51.376;7.148;2023-03-26T04:22:37;13.97;;;3.73;;
10277;SDS011;5184;51.376;7.148;2023-03-26T04:25:05;13.50;;;3.30;;
10277;SDS011;5184;51.376;7.148;2023-03-26T04:27:32;15.47;;;3.20;;
10277;SDS011;5184;51.376;7.148;2023-03-26T04:29:59;15.37;;;3.30;;
10277;SDS011;5184;51.376;7.148;2023-03-26T04:32:27;12.80;;;2.97;;
10277;SDS011;5184;51.376;7.148;2023-03-26T04:34:56;13.53;;;3.60;;
10277;SDS011;5184;51.376;7.148;2023-03-26T04:37:26;13.90;;;4.60;;
10277;SDS011;5184;51.376;7.148;2023-03-26T04:39:52;16.10;;;3.73;;
10277;SDS011;5184;51.376;7.148;2023-03-26T04:42:19;18.13;;;4.10;;
10277;SDS011;5184;51.376;7.148;2023-03-26T04:44:46;17.07;;;4.77;;
10277;SDS011;5184;51.376;7.148;2023-03-26T04:47:13;11.97;;;4.13;;
10277;SDS011;5184;51.376;7.148;2023-03-26T04:49:40;13.23;;;3.57;;
10277;SDS011;5184;51.376;7.148;2023-03-26T04:52:09;20.50;;;4.07;;
10277;SDS011;5184;51.376;7.148;2023-03-26T04:54:35;16.00;;;3.63;;
10277;SDS011;5184;51.376;7.148;2023-03-26T04:57:02;14.87;;;3.90;;
10277;SDS011;5184;51.376;7.148;2023-03-26T04:59:30;19.03;;;4.20;;
10277;SDS011;5184;51.376;7.148;2023-03-26T05:01:56;15.17;;;3.90;;
10277;SDS011;5184;51.376;7.148;2023-03-26T05:04:22;14.50;;;3.27;;
10277;SDS011;5184;51.376;7.148;2023-03-26T05:06:49;15.60;;;4.20;;
10277;SDS011;5184;51.376;7.148;2023-03-26T05:09:15;17.37;;;3.80;;
10277;SDS011;5184;51.376;7.148;2023-03-26T05:11:42;15.17;;;3.70;;
10277;SDS011;5184;51.376;7.148;2023-03-26T05:14:09;13.07;;;2.97;;
10277;SDS011;5184;51.376;7.148;2023-03-26T05:16:37;13.10;;;3.50;;
10277;SDS011;5184;51.376;7.148;2023-03-26T05:19:04;8.23;;;3.43;;
10277;SDS011;5184;51.376;7.148;2023-03-26T05:21:31;14.03;;;3.43;;
10277;SDS011;5184;51.376;7.148;2023-03-26T05:23:59;12.50;;;4.13;;
10277;SDS011;5184;51.376;7.148;2023-03-26T05:26:26;14.13;;;3.50;;
10277;SDS011;5184;51.376;7.148;2023-03-26T05:28:54;15.70;;;3.73;;
10277;SDS011;5184;51.376;7.148;2023-03-26T05:31:20;10.70;;;3.40;;
10277;SDS011;5184;51.376;7.148;2023-03-26T05:33:46;16.37;;;4.87;;
10277;SDS011;5184;51.376;7.148;2023-03-26T05:36:13;13.27;;;3.43;;
10277;SDS011;5184;51.376;7.148;2023-03-26T05:38:39;11.87;;;3.40;;
10277;SDS011;5184;51.376;7.148;2023-03-26T05:41:07;11.10;;;3.53;;
10277;SDS011;5184;51.376;7.148;2023-03-26T05:43:34;13.37;;;3.70;;
10277;SDS011;5184;51.376;7.148;2023-03-26T05:46:01;14.37;;;3.33;;
10277;SDS011;5184;51.376;7.148;2023-03-26T05:48:29;13.37;;;3.50;;
10277;SDS011;5184;51.376;7.148;2023-03-26T05:50:56;10.10;;;3.23;;
10277;SDS011;5184;51.376;7.148;2023-03-26T05:53:23;11.90;;;3.10;;
10277;SDS011;5184;51.376;7.148;2023-03-26T05:55:51;9.83;;;3.00;;
10277;SDS011;5184;51.376;7.148;2023-03-26T05:58:18;11.60;;;2.80;;
10277;SDS011;5184;51.376;7.148;2023-03-26T06:00:44;11.80;;;2.63;;
10277;SDS011;5184;51.376;7.148;2023-03-26T06:03:11;10.57;;;3.60;;
10277;SDS011;5184;51.376;7.148;2023-03-26T06:05:38;13.67;;;3.50;;
10277;SDS011;5184;51.376;7.148;2023-03-26T06:08:05;12.70;;;3.67;;
10277;SDS011;5184;51.376;7.148;2023-03-26T06:10:32;9.10;;;3.50;;
10277;SDS011;5184;51.376;7.148;2023-03-26T06:12:58;13.77;;;3.20;;
10277;SDS011;5184;51.376;7.148;2023-03-26T06:15:25;13.40;;;3.13;;
10277;SDS011;5184;51.376;7.148;2023-03-26T06:17:51;10.70;;;3.10;;
10277;SDS011;5184;51.376;7.148;2023-03-26T06:20:19;9.60;;;3.50;;
10277;SDS011;5184;51.376;7.148;2023-03-26T06:22:48;11.40;;;3.20;;
10277;SDS011;5184;51.376;7.148;2023-03-26T06:25:15;15.23;;;3.80;;
10277;SDS011;5184;51.376;7.148;2023-03-26T06:27:42;13.03;;;3.57;;
10277;SDS011;5184;51.376;7.148;2023-03-26T06:30:09;11.50;;;3.10;;
10277;SDS011;5184;51.376;7.148;2023-03-26T06:32:36;16.83;;;3.73;;
10277;SDS011;5184;51.376;7.148;2023-03-26T06:35:03;16.73;;;4.03;;
10277;SDS011;5184;51.376;7.148;2023-03-26T06:37:29;15.30;;;3.73;;
10277;SDS011;5184;51.376;7.148;2023-03-26T06:39:57;15.70;;;3.50;;
10277;SDS011;5184;51.376;7.148;2023-03-26T06:42:24;11.47;;;3.07;;
10277;SDS011;5184;51.376;7.148;2023-03-26T06:44:51;15.97;;;4.03;;
10277;SDS011;5184;51.376;7.148;2023-03-26T06:47:18;14.90;;;3.33;;
10277;SDS011;5184;51.376;7.148;2023-03-26T06:49:45;12.23;;;3.33;;
10277;SDS011;5184;51.376;7.148;2023-03-26T06:52:11;12.97;;;3.60;;
10277;SDS011;5184;51.376;7.148;2023-03-26T06:54:38;14.47;;;3.80;;
10277;SDS011;5184;51.376;7.148;2023-03-26T06:57:04;15.63;;;4.07;;
10277;SDS011;5184;51.376;7.148;2023-03-26T06:59:32;13.43;;;3.60;;
10277;SDS011;5184;51.376;7.148;2023-03-26T07:01:59;11.77;;;4.00;;
10277;SDS011;5184;51.376;7.148;2023-03-26T07:04:26;14.13;;;3.40;;
10277;SDS011;5184;51.376;7.148;2023-03-26T07:06:54;14.20;;;3.80;;
10277;SDS011;5184;51.376;7.148;2023-03-26T07:09:21;13.30;;;4.00;;
10277;SDS011;5184;51.376;7.148;2023-03-26T07:11:48;11.73;;;4.00;;
10277;SDS011;5184;51.376;7.148;2023-03-26T07:14:14;13.47;;;3.10;;
10277;SDS011;5184;51.376;7.148;2023-03-26T07:16:41;11.27;;;4.03;;
10277;SDS011;5184;51.376;7.148;2023-03-26T07:19:08;15.63;;;3.77;;
10277;SDS011;5184;51.376;7.148;2023-03-26T07:21:36;18.40;;;4.00;;
10277;SDS011;5184;51.376;7.148;2023-03-26T07:24:03;12.37;;;3.90;;
10277;SDS011;5184;51.376;7.148;2023-03-26T07:26:33;12.53;;;3.93;;
10277;SDS011;5184;51.376;7.148;2023-03-26T07:29:04;12.10;;;3.60;;
10277;SDS011;5184;51.376;7.148;2023-03-26T07:31:51;12.20;;;3.47;;
10277;SDS011;5184;51.376;7.148;2023-03-26T07:37:48;12.73;;;3.93;;
10277;SDS011;5184;51.376;7.148;2023-03-26T07:39:58;15.30;;;4.33;;
10277;SDS011;5184;51.376;7.148;2023-03-26T07:42:32;14.70;;;3.57;;
10277;SDS011;5184;51.376;7.148;2023-03-26T07:45:02;11.97;;;3.70;;
10277;SDS011;5184;51.376;7.148;2023-03-26T07:47:32;14.67;;;3.53;;
10277;SDS011;5184;51.376;7.148;2023-03-26T07:49:59;6.00;;;3.00;;
10277;SDS011;5184;51.376;7.148;2023-03-26T07:52:26;14.60;;;3.80;;
10277;SDS011;5184;51.376;7.148;2023-03-26T07:54:53;19.03;;;3.67;;
10277;SDS011;5184;51.376;7.148;2023-03-26T07:57:23;13.73;;;4.17;;
10277;SDS011;5184;51.376;7.148;2023-03-26T07:59:56;11.67;;;3.90;;
10277;SDS011;5184;51.376;7.148;2023-03-26T08:02:32;12.37;;;3.47;;
10277;SDS011;5184;51.376;7.148;2023-03-26T08:05:03;14.50;;;3.50;;
10277;SDS011;5184;51.376;7.148;2023-03-26T08:10:21;9.97;;;3.20;;
10277;SDS011;5184;51.376;7.148;2023-03-26T08:15:37;11.83;;;3.67;;
10277;SDS011;5184;51.376;7.148;2023-03-26T08:21:09;10.70;;;3.40;;
10277;SDS011;5184;51.376;7.148;2023-03-26T08:23:39;11.57;;;3.33;;
10277;SDS011;5184;51.376;7.148;2023-03-26T08:26:12;9.57;;;3.00;;
10277;SDS011;5184;51.376;7.148;2023-03-26T08:28:44;13.57;;;3.93;;
10277;SDS011;5184;51.376;7.148;2023-03-26T08:31:10;10.70;;;3.53;;
10277;SDS011;5184;51.376;7.148;2023-03-26T08:33:36;9.07;;;3.40;;
10277;SDS011;5184;51.376;7.148;2023-03-26T08:36:04;12.13;;;3.53;;
10277;SDS011;5184;51.376;7.148;2023-03-26T08:38:31;13.20;;;3.50;;
10277;SDS011;5184;51.376;7.148;2023-03-26T08:49:43;8.23;;;3.13;;
10277;SDS011;5184;51.376;7.148;2023-03-26T08:52:47;10.03;;;3.23;;
10277;SDS011;5184;51.376;7.148;2023-03-26T08:55:01;11.53;;;3.67;;
10277;SDS011;5184;51.376;7.148;2023-03-26T08:57:27;10.77;;;3.37;;
10277;SDS011;5184;51.376;7.148;2023-03-26T09:00:00;10.17;;;2.80;;
10277;SDS011;5184;51.376;7.148;2023-03-26T09:02:36;8.63;;;3.53;;
10277;SDS011;5184;51.376;7.148;2023-03-26T09:05:18;8.53;;;3.63;;
10277;SDS011;5184;51.376;7.148;2023-03-26T09:10:44;8.70;;;3.17;;
10277;SDS011;5184;51.376;7.148;2023-03-26T09:13:21;12.97;;;3.20;;
10277;SDS011;5184;51.376;7.148;2023-03-26T09:15:54;5.97;;;3.03;;
10277;SDS011;5184;51.376;7.148;2023-03-26T09:22:14;8.37;;;3.50;;
10277;SDS011;5184;51.376;7.148;2023-03-26T09:23:57;8.87;;;3.40;;
10277;SDS011;5184;51.376;7.148;2023-03-26T09:26:24;9.27;;;3.10;;
10277;SDS011;5184;51.376;7.148;2023-03-26T09:29:16;8.63;;;2.80;;
10277;SDS011;5184;51.376;7.148;2023-03-26T09:31:47;9.77;;;2.63;;
10277;SDS011;5184;51.376;7.148;2023-03-26T09:34:29;8.77;;;2.90;;
10277;SDS011;5184;51.376;7.148;2023-03-26T09:39:38;6.20;;;3.10;;
10277;SDS011;5184;51.376;7.148;2023-03-26T09:42:21;8.73;;;2.87;;
10277;SDS011;5184;51.376;7.148;2023-03-26T09:44:54;9.73;;;2.60;;
10277;SDS011;5184;51.376;7.148;2023-03-26T09:52:53;7.93;;;2.73;;
10277;SDS011;5184;51.376;7.148;2023-03-26T09:56:25;5.93;;;2.57;;
10277;SDS011;5184;51.376;7.148;2023-03-26T09:58:18;6.47;;;2.40;;
10277;SDS011;5184;51.376;7.148;2023-03-26T10:00:45;5.67;;;2.37;;
10277;SDS011;5184;51.376;7.148;2023-03-26T10:03:18;4.97;;;1.90;;
10277;SDS011;5184;51.376;7.148;2023-03-26T10:05:57;6.27;;;2.20;;
10277;SDS011;5184;51.376;7.148;2023-03-26T10:08:31;5.03;;;1.83;;
10277;SDS011;5184;51.376;7.148;2023-03-26T10:13:39;6.93;;;2.00;;
10277;SDS011;5184;51.376;7.148;2023-03-26T10:16:43;3.10;;;1.47;;
10277;SDS011;5184;51.376;7.148;2023-03-26T10:19:17;2.85;;;1.33;;
10277;SDS011;5184;51.376;7.148;2023-03-26T10:21:45;3.03;;;1.50;;
10277;SDS011;5184;51.376;7.148;2023-03-26T10:24:18;3.03;;;1.40;;
10277;SDS011;5184;51.376;7.148;2023-03-26T10:29:36;2.83;;;1.13;;
10277;SDS011;5184;51.376;7.148;2023-03-26T10:32:23;1.97;;;1.20;;
10277;SDS011;5184;51.376;7.148;2023-03-26T10:34:49;2.90;;;1.40;;
10277;SDS011;5184;51.376;7.148;2023-03-26T10:40:15;3.23;;;1.30;;
10277;SDS011;5184;51.376;7.148;2023-03-26T10:42:42;1.97;;;1.27;;
10277;SDS011;5184;51.376;7.148;2023-03-26T10:50:44;2.20;;;0.90;;
10277;SDS011;5184;51.376;7.148;2023-03-26T10:53:10;2.20;;;0.83;;
10277;SDS011;5184;51.376;7.148;2023-03-26T10:55:41;1.63;;;0.80;;
10277;SDS011;5184;51.376;7.148;2023-03-26T10:58:11;2.00;;;1.10;;
10277;SDS011;5184;51.376;7.148;2023-03-26T11:00:38;2.03;;;0.93;;
10277;SDS011;5184;51.376;7.148;2023-03-26T11:05:46;2.97;;;1.00;;
10277;SDS011;5184;51.376;7.148;2023-03-26T11:08:20;3.23;;;1.20;;
10277;SDS011;5184;51.376;7.148;2023-03-26T11:11:07;1.93;;;0.80;;
10277;SDS011;5184;51.376;7.148;2023-03-26T11:13:45;1.90;;;0.83;;
10277;SDS011;5184;51.376;7.148;2023-03-26T11:16:17;1.00;;;0.90;;
10277;SDS011;5184;51.376;7.148;2023-03-26T11:18:47;3.07;;;1.17;;
10277;SDS011;5184;51.376;7.148;2023-03-26T11:23:48;1.33;;;0.90;;
10277;SDS011;5184;51.376;7.148;2023-03-26T11:26:21;1.00;;;0.50;;
10277;SDS011;5184;51.376;7.148;2023-03-26T11:28:55;0.70;;;0.70;;
10277;SDS011;5184;51.376;7.148;2023-03-26T11:31:21;0.80;;;0.70;;
10277;SDS011;5184;51.376;7.148;2023-03-26T11:33:50;1.03;;;0.70;;
10277;SDS011;5184;51.376;7.148;2023-03-26T11:36:16;1.77;;;0.93;;
10277;SDS011;5184;51.376;7.148;2023-03-26T11:38:43;1.60;;;0.67;;
10277;SDS011;5184;51.376;7.148;2023-03-26T11:41:11;0.73;;;0.63;;
10277;SDS011;5184;51.376;7.148;2023-03-26T11:43:38;1.83;;;0.70;;
10277;SDS011;5184;51.376;7.148;2023-03-26T11:46:07;0.70;;;0.60;;
10277;SDS011;5184;51.376;7.148;2023-03-26T11:48:35;1.97;;;0.90;;
10277;SDS011;5184;51.376;7.148;2023-03-26T11:51:02;1.20;;;0.80;;
10277;SDS011;5184;51.376;7.148;2023-03-26T11:53:37;1.17;;;1.07;;
10277;SDS011;5184;51.376;7.148;2023-03-26T11:58:39;1.20;;;1.00;;
10277;SDS011;5184;51.376;7.148;2023-03-26T12:01:05;0.87;;;0.80;;
10277;SDS011;5184;51.376;7.148;2023-03-26T12:03:31;1.03;;;0.93;;
10277;SDS011;5184;51.376;7.148;2023-03-26T12:05:59;0.90;;;0.90;;
10277;SDS011;5184;51.376;7.148;2023-03-26T12:08:30;0.80;;;0.80;;
10277;SDS011;5184;51.376;7.148;2023-03-26T12:10:58;1.73;;;0.87;;
10277;SDS011;5184;51.376;7.148;2023-03-26T12:13:27;0.93;;;0.80;;
10277;SDS011;5184;51.376;7.148;2023-03-26T12:15:56;1.13;;;0.90;;
10277;SDS011;5184;51.376;7.148;2023-03-26T12:18:22;1.57;;;1.07;;
10277;SDS011;5184;51.376;7.148;2023-03-26T12:20:48;0.90;;;0.90;;
10277;SDS011;5184;51.376;7.148;2023-03-26T12:26:04;1.00;;;0.90;;
10277;SDS011;5184;51.376;7.148;2023-03-26T12:28:30;0.63;;;0.63;;
10277;SDS011;5184;51.376;7.148;2023-03-26T12:30:58;1.60;;;0.70;;
10277;SDS011;5184;51.376;7.148;2023-03-26T12:33:27;1.00;;;0.80;;
10277;SDS011;5184;51.376;7.148;2023-03-26T12:35:53;2.17;;;0.80;;
10277;SDS011;5184;51.376;7.148;2023-03-26T12:38:21;0.70;;;0.60;;
10277;SDS011;5184;51.376;7.148;2023-03-26T12:43:37;0.47;;;0.47;;
10277;SDS011;5184;51.376;7.148;2023-03-26T12:46:01;1.20;;;0.70;;
10277;SDS011;5184;51.376;7.148;2023-03-26T12:48:28;0.70;;;0.70;;
10277;SDS011;5184;51.376;7.148;2023-03-26T12:51:00;1.10;;;1.00;;
10277;SDS011;5184;51.376;7.148;2023-03-26T12:53:32;1.23;;;0.80;;
10277;SDS011;5184;51.376;7.148;2023-03-26T12:55:59;0.93;;;0.90;;
10277;SDS011;5184;51.376;7.148;2023-03-26T13:01:06;1.03;;;0.80;;
10277;SDS011;5184;51.376;7.148;2023-03-26T13:09:11;1.80;;;0.90;;
10277;SDS011;5184;51.376;7.148;2023-03-26T13:11:43;1.30;;;1.03;;
10277;SDS011;5184;51.376;7.148;2023-03-26T13:16:53;1.47;;;1.00;;
10277;SDS011;5184;51.376;7.148;2023-03-26T13:19:22;1.40;;;0.93;;
10277;SDS011;5184;51.376;7.148;2023-03-26T13:21:50;1.10;;;1.00;;
10277;SDS011;5184;51.376;7.148;2023-03-26T13:24:20;1.40;;;1.07;;
10277;SDS011;5184;51.376;7.148;2023-03-26T13:26:51;1.10;;;1.00;;
10277;SDS011;5184;51.376;7.148;2023-03-26T13:32:07;1.00;;;0.80;;
10277;SDS011;5184;51.376;7.148;2023-03-26T13:34:35;1.40;;;1.00;;
10277;SDS011;5184;51.376;7.148;2023-03-26T13:37:03;2.80;;;0.70;;
10277;SDS011;5184;51.376;7.148;2023-03-26T13:39:32;0.70;;;0.70;;
10277;SDS011;5184;51.376;7.148;2023-03-26T13:42:06;0.60;;;0.60;;
10277;SDS011;5184;51.376;7.148;2023-03-26T13:45:11;0.60;;;0.60;;
10277;SDS011;5184;51.376;7.148;2023-03-26T13:47:24;1.03;;;0.70;;
10277;SDS011;5184;51.376;7.148;2023-03-26T13:49:53;0.70;;;0.70;;
10277;SDS011;5184;51.376;7.148;2023-03-26T13:52:34;0.70;;;0.70;;
10277;SDS011;5184;51.376;7.148;2023-03-26T13:55:04;0.90;;;0.80;;
10277;SDS011;5184;51.376;7.148;2023-03-26T13:57:31;0.73;;;0.60;;
10277;SDS011;5184;51.376;7.148;2023-03-26T14:00:04;1.33;;;1.00;;
10277;SDS011;5184;51.376;7.148;2023-03-26T14:02:32;0.60;;;0.60;;
10277;SDS011;5184;51.376;7.148;2023-03-26T14:05:00;1.07;;;0.70;;
10277;SDS011;5184;51.376;7.148;2023-03-26T14:07:26;1.00;;;0.80;;
10277;SDS011;5184;51.376;7.148;2023-03-26T14:09:53;0.90;;;0.80;;
10277;SDS011;5184;51.376;7.148;2023-03-26T14:12:26;0.93;;;0.87;;
10277;SDS011;5184;51.376;7.148;2023-03-26T14:14:53;0.83;;;0.70;;
10277;SDS011;5184;51.376;7.148;2023-03-26T14:17:24;1.13;;;0.70;;
10277;SDS011;5184;51.376;7.148;2023-03-26T14:19:56;1.80;;;0.70;;
10277;SDS011;5184;51.376;7.148;2023-03-26T14:22:30;0.90;;;0.60;;
10277;SDS011;5184;51.376;7.148;2023-03-26T14:25:06;0.97;;;0.73;;
10277;SDS011;5184;51.376;7.148;2023-03-26T14:30:26;0.93;;;0.83;;
10277;SDS011;5184;51.376;7.148;2023-03-26T14:35:45;1.53;;;0.80;;
10277;SDS011;5184;51.376;7.148;2023-03-26T14:41:20;1.13;;;0.70;;
10277;SDS011;5184;51.376;7.148;2023-03-26T14:43:51;1.27;;;0.87;;
10277;SDS011;5184;51.376;7.148;2023-03-26T14:51:48;0.90;;;0.90;;
10277;SDS011;5184;51.376;7.148;2023-03-26T14:54:14;1.40;;;0.80;;
10277;SDS011;5184;51.376;7.148;2023-03-26T14:56:47;1.17;;;1.07;;
10277;SDS011;5184;51.376;7.148;2023-03-26T15:00:09;1.43;;;1.00;;
10277;SDS011;5184;51.376;7.148;2023-03-26T15:02:23;2.03;;;0.90;;
10277;SDS011;5184;51.376;7.148;2023-03-26T15:05:08;1.47;;;1.10;;
10277;SDS011;5184;51.376;7.148;2023-03-26T15:07:37;1.47;;;0.83;;
10277;SDS011;5184;51.376;7.148;2023-03-26T15:10:16;1.40;;;0.90;;
10277;SDS011;5184;51.376;7.148;2023-03-26T15:12:46;1.77;;;0.80;;
10277;SDS011;5184;51.376;7.148;2023-03-26T15:20:40;1.40;;;0.90;;
10277;SDS011;5184;51.376;7.148;2023-03-26T15:23:21;1.33;;;1.23;;
10277;SDS011;5184;51.376;7.148;2023-03-26T15:28:38;1.77;;;1.17;;
10277;SDS011;5184;51.376;7.148;2023-03-26T15:41:28;2.97;;;1.80;;
10277;SDS011;5184;51.376;7.148;2023-03-26T15:44:13;2.57;;;1.60;;
10277;SDS011;5184;51.376;7.148;2023-03-26T15:52:04;3.03;;;1.60;;
10277;SDS011;5184;51.376;7.148;2023-03-26T15:54:32;3.37;;;1.90;;
10277;SDS011;5184;51.376;7.148;2023-03-26T15:57:04;4.70;;;2.10;;
10277;SDS011;5184;51.376;7.148;2023-03-26T15:59:47;2.73;;;1.90;;
10277;SDS011;5184;51.376;7.148;2023-03-26T16:02:21;2.83;;;1.93;;
10277;SDS011;5184;51.376;7.148;2023-03-26T16:04:54;2.83;;;1.90;;
10277;SDS011;5184;51.376;7.148;2023-03-26T16:07:26;4.13;;;1.93;;
10277;SDS011;5184;51.376;7.148;2023-03-26T16:10:11;3.77;;;1.87;;
10277;SDS011;5184;51.376;7.148;2023-03-26T16:15:22;5.40;;;2.10;;
10277;SDS011;5184;51.376;7.148;2023-03-26T16:20:23;3.40;;;1.80;;
10277;SDS011;5184;51.376;7.148;2023-03-26T16:22:56;1.43;;;1.30;;
10277;SDS011;5184;51.376;7.148;2023-03-26T16:25:25;2.20;;;1.33;;
10277;SDS011;5184;51.376;7.148;2023-03-26T16:30:43;3.63;;;1.23;;
10277;SDS011;5184;51.376;7.148;2023-03-26T16:33:12;1.80;;;1.40;;
10277;SDS011;5184;51.376;7.148;2023-03-26T16:35:41;2.57;;;1.40;;
10277;SDS011;5184;51.376;7.148;2023-03-26T16:38:09;2.30;;;1.40;;
10277;SDS011;5184;51.376;7.148;2023-03-26T16:40:35;1.93;;;1.70;;
10277;SDS011;5184;51.376;7.148;2023-03-26T16:43:17;2.57;;;1.40;;
10277;SDS011;5184;51.376;7.148;2023-03-26T16:46:04;1.83;;;1.50;;
10277;SDS011;5184;51.376;7.148;2023-03-26T16:48:50;3.30;;;1.70;;
10277;SDS011;5184;51.376;7.148;2023-03-26T16:51:26;3.37;;;2.00;;
10277;SDS011;5184;51.376;7.148;2023-03-26T16:56:32;5.03;;;2.30;;
10277;SDS011;5184;51.376;7.148;2023-03-26T16:59:06;7.77;;;3.87;;
10277;SDS011;5184;51.376;7.148;2023-03-26T17:01:34;9.13;;;4.27;;
10277;SDS011;5184;51.376;7.148;2023-03-26T17:04:01;12.37;;;5.33;;
10277;SDS011;5184;51.376;7.148;2023-03-26T17:06:31;12.80;;;4.87;;
10277;SDS011;5184;51.376;7.148;2023-03-26T17:09:06;14.33;;;5.17;;
10277;SDS011;5184;51.376;7.148;2023-03-26T17:11:35;11.73;;;5.07;;
10277;SDS011;5184;51.376;7.148;2023-03-26T17:15:06;15.83;;;6.13;;